Airfield :
LOGIN :

Register | Disclaimer

   EN    FR    IT 

 










Legend :    VFR   Marginal VFR   IFR   Intensive IFR   Very Intensive IFR
Visi :
Ceiling :
>= 8 km
>= 3000ft
5 to 8 km
1000 to 3000 ft
1500m to 5 km
500 to 1000 ft
800 to 1500m
200 to 500 ft
< 800m
< 200 ft
Symbols :   Thunderstorms  Fog  Heavy snow  Heavy precipitations  Wind > 20 kt
SIGMETs :     Misc.  Thunderstorms  Icing  Turbulence  Mountain Waves  Volcanic Ashes







- Airport Elevation : 202 ft
- IATA code : LGW
- Download approach charts


EGKK - London Gatwick

CURRENT METAR :
  • 170250Z 23008KT CAVOK 05/04 Q1011

EXPIRED METARs :
  • 170220Z 24008KT CAVOK 06/04 Q1011
  • 170150Z 24009KT 9999 FEW028 06/05 Q1010
  • 170120Z 25010KT 9999 SCT027 06/05 Q1010
  • 170050Z 25011KT 9999 FEW014 SCT030 07/05 Q1009
  • 170020Z 26010KT 9999 SCT014 07/05 Q1009

TAF TAF EGKK
Valid from the 17 at 00:00 until the 18 at 06:00 UTC


162303Z 1700/1806 25008KT 9999 FEW020
TEMPO 1702/1710 6000
PROB30 1703/1709 2000 BR
BECMG 1715/1718 19010KT
TEMPO 1721/1806 BKN012
TEMPO 1802/1806 18015G25KT
No reported NOTAMs for that airfield.



MET'MAP, your aeronautical weather chart ! - Copyright ORBIFLY December 2007 - Disclaimer

ORBIFLY MET'MAP TEAM :

Programming & Development : Alexandra Zaïnal
Concept & Development : Baudouin d'Aumeries
Co-Development & Prog : Marc-Olivier Méhu
Technical & hardware support : Manuel Goepfert

Contact : metmap@orbifly.com




SOURCES & CREDITS :

   NOAA